createdAt,value
2023-01-20T00:00:47.547Z,33.03
2023-01-20T00:03:14.765Z,28.02
2023-01-20T00:05:50.762Z,24.90
2023-01-20T00:08:17.855Z,35.85
2023-01-20T00:10:44.940Z,27.98
2023-01-20T00:13:12.035Z,34.42
2023-01-20T00:15:39.162Z,34.00
2023-01-20T00:18:06.348Z,38.05
2023-01-20T00:20:33.456Z,33.88
2023-01-20T00:23:00.871Z,29.95
2023-01-20T00:25:28.108Z,35.70
2023-01-20T00:27:55.299Z,30.88
2023-01-20T00:30:22.462Z,31.63
2023-01-20T00:32:49.563Z,35.03
2023-01-20T00:35:16.701Z,35.92
2023-01-20T00:37:44.066Z,34.58
2023-01-20T00:40:11.456Z,36.53
2023-01-20T00:42:39.671Z,29.73
2023-01-20T00:45:07.062Z,30.63
2023-01-20T00:47:34.160Z,33.40
2023-01-20T00:50:01.236Z,32.75
2023-01-20T00:52:30.344Z,32.45
2023-01-20T00:54:57.532Z,32.42
2023-01-20T00:57:24.790Z,33.80
2023-01-20T00:59:55.134Z,28.17
2023-01-20T01:02:22.342Z,34.58
2023-01-20T01:04:50.926Z,35.75
2023-01-20T01:07:18.800Z,32.63
2023-01-20T01:09:46.271Z,35.83
2023-01-20T01:12:13.611Z,34.80
2023-01-20T01:14:40.768Z,32.30
2023-01-20T01:17:07.920Z,31.42
2023-01-20T01:19:35.071Z,36.70
2023-01-20T01:22:02.157Z,37.08
2023-01-20T01:24:29.291Z,32.38
2023-01-20T01:26:56.395Z,37.10
2023-01-20T01:29:23.521Z,36.72
2023-01-20T01:31:50.674Z,33.08
2023-01-20T01:34:17.863Z,33.20
2023-01-20T01:36:45.019Z,26.40
2023-01-20T01:39:12.157Z,35.28
2023-01-20T01:41:39.286Z,35.67
2023-01-20T01:44:08.643Z,36.05
2023-01-20T01:46:36.074Z,28.63
2023-01-20T01:49:07.035Z,32.50
2023-01-20T01:51:37.492Z,25.52
2023-01-20T01:54:09.760Z,35.83
2023-01-20T01:56:38.008Z,34.22
2023-01-20T01:59:05.453Z,33.63
2023-01-20T02:01:38.279Z,30.75
2023-01-20T02:04:08.642Z,29.23
2023-01-20T02:06:36.761Z,27.35
2023-01-20T02:09:04.710Z,29.40
2023-01-20T02:11:35.313Z,31.63
2023-01-20T02:14:02.992Z,32.05
2023-01-20T02:16:50.142Z,32.97
2023-01-20T02:28:16.565Z,27.27
2023-01-20T02:30:56.984Z,29.50
2023-01-20T02:33:43.127Z,33.03
2023-01-20T02:36:11.725Z,30.42
2023-01-20T02:38:58.633Z,31.63
2023-01-20T02:41:35.744Z,29.45
2023-01-20T02:44:22.625Z,33.65
2023-01-20T02:49:46.447Z,33.17
2023-01-20T02:52:16.190Z,33.83
2023-01-20T02:54:45.146Z,30.10
2023-01-20T02:57:14.865Z,30.08
2023-01-20T02:59:44.797Z,33.47
2023-01-20T03:02:15.646Z,30.52
2023-01-20T03:04:48.084Z,30.25
2023-01-20T03:07:15.470Z,35.55
2023-01-20T03:09:45.278Z,28.77
2023-01-20T03:12:16.253Z,28.05
2023-01-20T03:14:43.519Z,31.92
2023-01-20T03:17:10.775Z,29.30
2023-01-20T03:19:37.987Z,34.22
2023-01-20T03:22:05.359Z,32.10
2023-01-20T03:24:33.063Z,33.80
2023-01-20T03:27:00.319Z,29.35
2023-01-20T03:29:28.763Z,30.35
2023-01-20T03:31:57.352Z,31.98
2023-01-20T03:34:25.236Z,33.22
2023-01-20T03:36:53.409Z,30.95
2023-01-20T03:39:20.976Z,35.67
2023-01-20T03:53:18.869Z,30.63
2023-01-20T03:55:50.264Z,34.05
2023-01-20T03:58:21.604Z,27.40
2023-01-20T04:00:49.955Z,29.27
2023-01-20T04:03:19.773Z,27.70
2023-01-20T04:05:47.795Z,34.55
2023-01-20T04:08:15.490Z,32.85
2023-01-20T04:10:44.289Z,31.50
2023-01-20T04:13:11.458Z,31.15
2023-01-20T04:15:40.537Z,34.55
2023-01-20T04:18:12.604Z,29.95
2023-01-20T04:20:40.407Z,29.33
2023-01-20T04:23:08.709Z,32.17
2023-01-20T04:25:36.377Z,31.48
2023-01-20T04:28:03.617Z,32.38
2023-01-20T04:30:30.944Z,28.45
2023-01-20T04:32:58.139Z,33.58
2023-01-20T04:35:25.527Z,30.30
2023-01-20T04:37:52.785Z,32.22
2023-01-20T04:40:20.187Z,28.15
2023-01-20T04:42:47.418Z,31.27
2023-01-20T04:45:16.826Z,27.45
2023-01-20T04:47:44.708Z,31.10
2023-01-20T04:50:12.601Z,32.10
2023-01-20T04:52:39.744Z,31.98
2023-01-20T04:55:07.092Z,33.92
2023-01-20T04:57:34.331Z,29.08
2023-01-20T05:00:01.828Z,26.73
2023-01-20T05:02:30.476Z,29.55
2023-01-20T05:04:57.826Z,27.42
2023-01-20T05:07:25.506Z,32.58
2023-01-20T05:09:52.632Z,30.40
2023-01-20T05:12:19.751Z,30.27
2023-01-20T05:14:46.978Z,34.40
2023-01-20T05:17:14.111Z,30.25
2023-01-20T05:19:41.270Z,26.02
2023-01-20T05:22:08.349Z,33.13
2023-01-20T05:24:35.476Z,28.80
2023-01-20T05:27:02.611Z,35.67
2023-01-20T05:29:30.164Z,30.35
2023-01-20T05:31:57.355Z,32.60
2023-01-20T05:34:24.637Z,30.95
2023-01-20T05:36:53.013Z,31.08
2023-01-20T05:39:20.480Z,31.95
2023-01-20T05:41:47.879Z,31.67
2023-01-20T05:44:15.720Z,29.13
2023-01-20T05:46:42.863Z,27.73
2023-01-20T05:49:13.016Z,32.95
2023-01-20T05:51:40.525Z,26.73
2023-01-20T05:54:07.765Z,30.15
2023-01-20T05:56:35.000Z,27.23
2023-01-20T05:59:04.640Z,28.20
2023-01-20T06:01:31.918Z,28.90
2023-01-20T06:03:59.225Z,28.90
2023-01-20T06:06:26.445Z,28.40
2023-01-20T06:08:53.752Z,28.10
2023-01-20T06:11:21.095Z,29.80
2023-01-20T06:13:48.841Z,27.08
2023-01-20T06:16:17.869Z,35.55
2023-01-20T06:18:45.367Z,30.17
2023-01-20T06:21:12.537Z,27.88
2023-01-20T06:23:39.769Z,26.08
2023-01-20T06:26:08.270Z,25.02
2023-01-20T06:28:36.307Z,33.75
2023-01-20T06:31:05.322Z,27.58
2023-01-20T06:33:33.346Z,27.13
2023-01-20T06:36:00.856Z,29.15
2023-01-20T06:38:30.859Z,26.23
2023-01-20T06:41:00.659Z,28.90
2023-01-20T06:43:32.007Z,23.90
2023-01-20T06:46:00.428Z,28.70
2023-01-20T06:48:27.588Z,26.65
2023-01-20T06:51:00.136Z,29.10
2023-01-20T06:53:27.434Z,24.25
2023-01-20T06:55:57.129Z,25.17
2023-01-20T06:58:25.253Z,25.17
2023-01-20T07:00:53.059Z,27.60
2023-01-20T07:03:20.343Z,30.33
2023-01-20T07:05:56.957Z,32.10
2023-01-20T07:08:24.069Z,25.70
2023-01-20T07:10:51.423Z,31.08
2023-01-20T07:13:18.599Z,27.30
2023-01-20T07:15:46.000Z,28.80
2023-01-20T07:18:13.934Z,27.00
2023-01-20T07:20:41.102Z,25.55
2023-01-20T07:23:08.286Z,28.02
2023-01-20T07:25:38.212Z,29.20
2023-01-20T07:28:05.548Z,24.33
2023-01-20T07:30:32.694Z,26.33
2023-01-20T07:32:59.865Z,28.92
2023-01-20T07:35:26.995Z,22.10
2023-01-20T07:37:54.118Z,26.17
2023-01-20T07:40:21.390Z,23.80
2023-01-20T07:42:48.505Z,27.30
2023-01-20T07:45:16.801Z,31.83
2023-01-20T07:47:44.168Z,28.00
2023-01-20T07:50:11.454Z,29.65
2023-01-20T07:52:38.547Z,26.90
2023-01-20T07:55:05.825Z,24.48
2023-01-20T07:57:33.820Z,28.65
2023-01-20T08:00:01.288Z,29.20
2023-01-20T08:02:30.732Z,29.92
2023-01-20T08:04:57.910Z,24.10
2023-01-20T08:07:25.114Z,28.65
2023-01-20T08:09:52.379Z,28.02
2023-01-20T08:12:19.503Z,23.00
2023-01-20T08:14:46.631Z,29.00
2023-01-20T08:17:13.777Z,29.77
2023-01-20T08:19:40.940Z,27.80
2023-01-20T08:22:08.168Z,25.83
2023-01-20T08:24:35.296Z,28.08
2023-01-20T08:27:02.643Z,32.08
2023-01-20T08:29:31.481Z,27.38
2023-01-20T08:31:59.938Z,26.77
2023-01-20T08:34:27.290Z,23.92
2023-01-20T08:36:56.760Z,24.30
2023-01-20T08:39:24.218Z,23.33
2023-01-20T08:41:51.437Z,23.70
2023-01-20T08:44:20.700Z,19.23
2023-01-20T08:46:47.910Z,25.35
2023-01-20T08:49:16.731Z,24.30
2023-01-20T08:51:45.098Z,28.23
2023-01-20T08:54:12.508Z,23.05
2023-01-20T08:56:39.705Z,25.98
2023-01-20T08:59:07.077Z,24.30
2023-01-20T09:01:36.523Z,20.25
2023-01-20T09:04:06.235Z,31.83
2023-01-20T09:06:38.779Z,25.58
2023-01-20T09:09:06.058Z,27.40
2023-01-20T09:11:33.345Z,20.45
2023-01-20T09:14:00.682Z,27.88
2023-01-20T09:16:27.889Z,21.55
2023-01-20T09:18:59.940Z,21.65
2023-01-20T09:21:30.847Z,25.13
2023-01-20T09:23:58.054Z,26.95
2023-01-20T09:26:35.243Z,21.77
2023-01-20T09:29:09.967Z,22.60
2023-01-20T09:31:38.718Z,17.50
2023-01-20T09:34:06.172Z,25.58
2023-01-20T09:36:33.369Z,23.58
2023-01-20T09:39:21.499Z,18.75
2023-01-20T09:42:08.937Z,21.50
2023-01-20T09:44:42.786Z,17.30
2023-01-20T09:47:31.190Z,17.98
2023-01-20T09:52:56.875Z,20.60
2023-01-20T09:55:44.256Z,17.83
2023-01-20T09:58:15.353Z,19.10
2023-01-20T10:00:49.417Z,17.15
2023-01-20T10:03:20.838Z,17.90
2023-01-20T10:05:50.248Z,16.55
2023-01-20T10:08:20.627Z,18.73
2023-01-20T10:10:54.235Z,19.73
2023-01-20T10:13:26.641Z,14.73
2023-01-20T10:15:55.566Z,15.80
2023-01-20T10:21:31.380Z,17.42
2023-01-20T10:24:08.525Z,19.45
2023-01-20T10:29:17.940Z,19.77
2023-01-20T10:31:59.672Z,18.17
2023-01-20T10:34:31.030Z,13.63
2023-01-20T10:37:16.164Z,14.95
2023-01-20T10:39:50.378Z,14.77
2023-01-20T10:42:18.999Z,19.13
2023-01-20T10:44:47.477Z,13.20
2023-01-20T10:47:17.674Z,16.95
2023-01-20T10:49:54.978Z,14.85
2023-01-20T10:55:23.017Z,15.52
2023-01-20T10:57:54.911Z,15.00
2023-01-20T11:00:24.997Z,15.63
2023-01-20T11:02:52.783Z,12.65
2023-01-20T11:08:01.457Z,20.05
2023-01-20T11:10:44.970Z,17.83
2023-01-20T11:13:14.582Z,18.73
2023-01-20T11:15:44.997Z,14.00
2023-01-20T11:29:04.454Z,17.30
2023-01-20T11:31:44.212Z,19.92
2023-01-20T11:34:31.557Z,16.73
2023-01-20T11:39:44.371Z,20.17
2023-01-20T11:42:29.390Z,17.55
2023-01-20T11:47:35.030Z,19.10
2023-01-20T11:52:46.314Z,13.50
2023-01-20T11:55:19.272Z,19.95
2023-01-20T11:57:48.987Z,12.32
2023-01-20T12:02:58.995Z,15.85
2023-01-20T12:05:30.143Z,15.30
2023-01-20T12:08:00.014Z,13.10
2023-01-20T12:10:32.518Z,23.35
2023-01-20T12:15:40.896Z,14.15
2023-01-20T12:20:55.731Z,15.38
2023-01-20T12:23:33.628Z,14.80
2023-01-20T12:26:02.890Z,12.75
2023-01-20T12:28:40.967Z,17.30
2023-01-20T12:33:38.624Z,14.13
2023-01-20T12:36:25.521Z,14.90
2023-01-20T12:39:12.584Z,15.07
2023-01-20T12:41:47.485Z,15.50
2023-01-20T12:44:22.418Z,16.02
2023-01-20T12:47:04.609Z,12.40
2023-01-20T12:52:18.576Z,14.48
2023-01-20T13:00:21.093Z,13.75
2023-01-20T13:03:04.759Z,14.98
2023-01-20T13:11:02.049Z,13.27
2023-01-20T13:16:27.452Z,13.88
2023-01-20T13:19:14.588Z,12.43
2023-01-20T13:21:42.836Z,15.95
2023-01-20T13:24:19.107Z,17.63
2023-01-20T13:26:47.642Z,12.73
2023-01-20T13:29:34.572Z,11.93
2023-01-20T13:32:02.026Z,12.65
2023-01-20T13:37:21.651Z,16.23
2023-01-20T13:39:49.587Z,10.48
2023-01-20T13:42:36.579Z,15.57
2023-01-20T13:45:22.759Z,15.93
2023-01-20T13:47:55.327Z,13.77
2023-01-20T13:50:24.211Z,16.25
2023-01-20T13:55:28.682Z,14.77
2023-01-20T13:57:55.893Z,15.68
2023-01-20T14:00:22.993Z,15.15
2023-01-20T14:02:53.259Z,15.05
2023-01-20T14:05:21.658Z,16.58
2023-01-20T14:07:48.785Z,15.00
2023-01-20T14:10:16.345Z,16.00
2023-01-20T14:12:43.697Z,18.17
2023-01-20T14:15:28.439Z,12.63
2023-01-20T14:17:56.515Z,14.45
2023-01-20T14:20:25.216Z,17.65
2023-01-20T14:22:52.480Z,14.57
2023-01-20T14:25:21.145Z,22.05
2023-01-20T14:27:48.196Z,12.90
2023-01-20T14:30:20.547Z,13.65
2023-01-20T14:32:47.792Z,18.67
2023-01-20T14:35:18.268Z,17.77
2023-01-20T14:37:49.331Z,15.25
2023-01-20T14:43:03.156Z,18.27
2023-01-20T14:45:32.206Z,13.27
2023-01-20T14:48:00.490Z,16.45
2023-01-20T14:50:27.743Z,14.32
2023-01-20T14:52:55.133Z,15.18
2023-01-20T14:55:31.032Z,15.38
2023-01-20T14:57:58.665Z,15.65
2023-01-20T15:00:28.550Z,11.10
2023-01-20T15:05:34.177Z,16.20
2023-01-20T15:11:14.010Z,15.27
2023-01-20T15:13:42.658Z,17.30
2023-01-20T15:19:11.957Z,13.40
2023-01-20T15:21:40.159Z,12.90
2023-01-20T15:24:13.328Z,17.00
2023-01-20T15:26:40.638Z,13.75
2023-01-20T15:29:24.709Z,16.35
2023-01-20T15:31:52.528Z,17.27
2023-01-20T15:34:20.231Z,20.27
2023-01-20T15:36:48.192Z,14.68
2023-01-20T15:39:16.598Z,16.20
2023-01-20T15:41:43.831Z,18.33
2023-01-20T15:44:11.047Z,16.60
2023-01-20T15:46:39.892Z,16.17
2023-01-20T15:49:11.655Z,19.08
2023-01-20T15:51:39.020Z,17.02
2023-01-20T15:54:07.706Z,18.17
2023-01-20T15:56:36.192Z,17.85
2023-01-20T15:59:03.493Z,19.05
2023-01-20T16:01:30.979Z,18.00
2023-01-20T16:03:58.855Z,22.98
2023-01-20T16:06:34.176Z,22.95
2023-01-20T16:09:02.474Z,20.15
2023-01-20T16:11:29.577Z,22.00
2023-01-20T16:13:58.220Z,19.60
2023-01-20T16:16:27.382Z,23.15
2023-01-20T16:18:56.615Z,21.20
2023-01-20T16:21:23.799Z,22.13
2023-01-20T16:23:50.934Z,27.58
2023-01-20T16:28:57.566Z,26.10
2023-01-20T16:31:25.604Z,23.67
2023-01-20T16:33:53.269Z,27.05
2023-01-20T16:36:21.252Z,22.70
2023-01-20T16:38:48.956Z,27.02
2023-01-20T16:41:20.114Z,20.27
2023-01-20T16:43:47.356Z,21.45
2023-01-20T16:46:15.872Z,25.98
2023-01-20T16:48:43.094Z,25.25
2023-01-20T16:51:13.936Z,23.05
2023-01-20T16:53:41.049Z,22.10
2023-01-20T16:56:16.426Z,21.55
2023-01-20T16:58:43.929Z,22.15
2023-01-20T17:01:12.481Z,25.02
2023-01-20T17:03:40.537Z,25.70
2023-01-20T17:06:09.956Z,22.52
2023-01-20T17:08:37.098Z,24.48
2023-01-20T17:11:04.336Z,20.05
2023-01-20T17:13:31.503Z,22.70
2023-01-20T17:15:59.534Z,17.77
2023-01-20T17:18:26.771Z,24.92
2023-01-20T17:20:53.898Z,25.15
2023-01-20T17:23:21.268Z,26.27
2023-01-20T17:25:48.928Z,23.77
2023-01-20T17:28:16.190Z,23.52
2023-01-20T17:30:43.375Z,17.00
2023-01-20T17:33:10.641Z,17.38
2023-01-20T17:35:37.780Z,20.83
2023-01-20T17:38:05.010Z,17.45
2023-01-20T17:40:32.154Z,17.88
2023-01-20T17:42:59.305Z,18.30
2023-01-20T17:45:28.589Z,19.45
2023-01-20T17:47:55.845Z,17.67
2023-01-20T17:50:23.170Z,15.85
2023-01-20T17:52:50.995Z,12.70
2023-01-20T17:55:18.413Z,17.48
2023-01-20T17:57:45.762Z,17.48
2023-01-20T18:00:13.601Z,16.10
2023-01-20T18:02:41.062Z,13.73
2023-01-20T18:05:08.625Z,13.45
2023-01-20T18:07:35.846Z,13.48
2023-01-20T18:10:03.203Z,12.30
2023-01-20T18:12:30.897Z,13.95
2023-01-20T18:14:58.963Z,10.80
2023-01-20T18:17:26.110Z,11.40
2023-01-20T18:19:53.326Z,9.35
2023-01-20T18:22:20.549Z,7.95
2023-01-20T18:24:47.719Z,10.65
2023-01-20T18:27:15.169Z,10.27
2023-01-20T18:29:42.463Z,8.40
2023-01-20T18:32:09.762Z,8.75
2023-01-20T18:34:36.891Z,7.00
2023-01-20T18:37:04.512Z,12.45
2023-01-20T18:39:31.732Z,11.02
2023-01-20T18:41:58.894Z,10.82
2023-01-20T18:44:26.135Z,6.95
2023-01-20T18:46:53.301Z,8.40
2023-01-20T18:49:20.533Z,6.28
2023-01-20T18:51:47.812Z,5.43
2023-01-20T18:54:17.722Z,6.95
2023-01-20T18:56:44.920Z,6.07
2023-01-20T18:59:12.540Z,7.47
2023-01-20T19:01:40.587Z,7.68
2023-01-20T19:04:09.449Z,5.25
2023-01-20T19:06:38.071Z,4.95
2023-01-20T19:09:05.841Z,6.32
2023-01-20T19:11:35.947Z,8.05
2023-01-20T19:14:03.174Z,4.43
2023-01-20T19:16:34.526Z,4.65
2023-01-20T19:19:02.454Z,3.88
2023-01-20T19:21:32.680Z,4.88
2023-01-20T19:24:01.647Z,6.53
2023-01-20T19:26:29.158Z,3.88
2023-01-20T19:29:02.612Z,5.13
2023-01-20T19:31:31.228Z,4.35
2023-01-20T19:33:58.779Z,8.38
2023-01-20T19:36:26.194Z,6.28
2023-01-20T19:38:53.444Z,5.80
2023-01-20T19:41:23.104Z,10.48
2023-01-20T19:43:55.896Z,9.48
2023-01-20T19:46:24.667Z,9.77
2023-01-20T19:48:52.746Z,4.18
2023-01-20T19:51:20.522Z,7.50
2023-01-20T19:53:48.819Z,7.72
2023-01-20T19:56:17.480Z,4.88
2023-01-20T19:58:45.269Z,4.65
2023-01-20T20:01:14.461Z,4.47
2023-01-20T20:03:42.043Z,8.07
2023-01-20T20:06:21.534Z,4.88
2023-01-20T20:08:48.698Z,7.57
2023-01-20T20:11:16.067Z,6.05
2023-01-20T20:13:43.241Z,3.92
2023-01-20T20:16:10.700Z,11.52
2023-01-20T20:18:37.852Z,4.63
2023-01-20T20:21:06.060Z,6.45
2023-01-20T20:23:33.263Z,4.63
2023-01-20T20:26:00.360Z,6.30
2023-01-20T20:28:28.196Z,6.03
2023-01-20T20:30:55.753Z,7.63
2023-01-20T20:33:23.992Z,7.22
2023-01-20T20:35:51.460Z,8.18
2023-01-20T20:38:19.006Z,8.40
2023-01-20T20:40:46.229Z,5.63
2023-01-20T20:43:13.382Z,8.23
2023-01-20T20:45:40.467Z,5.00
2023-01-20T20:48:07.607Z,4.63
2023-01-20T20:50:34.752Z,5.15
2023-01-20T20:53:01.854Z,7.93
2023-01-20T20:55:29.583Z,7.88
2023-01-20T20:57:56.788Z,4.80
2023-01-20T21:00:28.312Z,11.98
2023-01-20T21:02:55.983Z,5.13
2023-01-20T21:05:23.225Z,5.20
2023-01-20T21:07:50.287Z,5.95
2023-01-20T21:10:18.101Z,3.92
2023-01-20T21:12:46.095Z,2.40
2023-01-20T21:15:13.882Z,7.28
2023-01-20T21:17:41.162Z,4.22
2023-01-20T21:20:09.324Z,5.05
2023-01-20T21:22:36.415Z,3.65
2023-01-20T21:25:03.578Z,6.95
2023-01-20T21:27:32.708Z,6.10
2023-01-20T21:29:59.894Z,4.88
2023-01-20T21:32:26.982Z,9.07
2023-01-20T21:34:55.275Z,4.13
2023-01-20T21:37:22.426Z,5.20
2023-01-20T21:39:49.500Z,4.00
2023-01-20T21:42:16.551Z,4.72
2023-01-20T21:44:43.674Z,6.30
2023-01-20T21:47:11.836Z,9.68
2023-01-20T21:49:58.765Z,4.88
2023-01-20T21:52:41.639Z,4.13
2023-01-20T21:55:09.935Z,5.45
2023-01-20T21:57:37.122Z,6.28
2023-01-20T22:00:05.503Z,5.88
2023-01-20T22:02:49.267Z,6.40
2023-01-20T22:05:16.551Z,8.10
2023-01-20T22:07:43.649Z,3.50
2023-01-20T22:10:11.223Z,5.20
2023-01-20T22:12:38.351Z,6.28
2023-01-20T22:15:05.729Z,7.40
2023-01-20T22:17:32.915Z,6.97
2023-01-20T22:19:59.995Z,9.60
2023-01-20T22:22:27.099Z,4.22
2023-01-20T22:24:54.356Z,5.32
2023-01-20T22:27:21.430Z,8.57
2023-01-20T22:29:48.649Z,6.97
2023-01-20T22:32:15.735Z,7.95
2023-01-20T22:34:42.856Z,8.07
2023-01-20T22:37:09.935Z,6.35
2023-01-20T22:39:37.093Z,8.57
2023-01-20T22:42:04.307Z,4.88
2023-01-20T22:44:31.419Z,9.55
2023-01-20T22:46:58.487Z,6.40
2023-01-20T22:49:25.539Z,3.03
2023-01-20T22:51:54.505Z,3.05
2023-01-20T22:54:21.631Z,5.82
2023-01-20T22:56:48.729Z,6.85
2023-01-20T22:59:15.808Z,6.15
2023-01-20T23:01:42.971Z,6.68
2023-01-20T23:04:10.061Z,6.60
2023-01-20T23:06:37.387Z,4.60
2023-01-20T23:09:06.592Z,5.00
2023-01-20T23:11:34.239Z,4.65
2023-01-20T23:14:01.366Z,5.85
2023-01-20T23:16:28.513Z,3.47
2023-01-20T23:18:55.708Z,4.82
2023-01-20T23:21:22.904Z,6.20
2023-01-20T23:23:54.776Z,4.72
2023-01-20T23:26:24.008Z,6.10
2023-01-20T23:28:51.569Z,5.43
2023-01-20T23:31:18.802Z,4.38
2023-01-20T23:33:46.288Z,12.65
2023-01-20T23:36:15.649Z,6.45
2023-01-20T23:38:43.044Z,6.00
2023-01-20T23:41:10.491Z,3.20
2023-01-20T23:43:37.664Z,5.03
2023-01-20T23:46:06.048Z,7.32
2023-01-20T23:48:33.619Z,7.43
2023-01-20T23:51:02.094Z,4.18
2023-01-20T23:53:30.109Z,1.33
2023-01-20T23:56:01.536Z,9.20
2023-01-20T23:58:28.673Z,4.07
